地図

経路データ

SID SEASON NUMBER BASIN SUBBASIN NAME ISO_TIME NATURE LAT LON WMO_WIND WMO_PRES WMO_AGENCY TRACK_TYPE DIST2LAND LANDFALL IFLAG USA_AGENCY USA_ATCF_ID USA_LAT USA_LON USA_RECORD USA_STATUS USA_WIND USA_PRES USA_SSHS USA_R34_NE USA_R34_SE USA_R34_SW USA_R34_NW USA_R50_NE USA_R50_SE USA_R50_SW USA_R50_NW USA_R64_NE USA_R64_SE USA_R64_SW USA_R64_NW USA_POCI USA_ROCI USA_RMW USA_EYE TOKYO_LAT TOKYO_LON TOKYO_GRADE TOKYO_WIND TOKYO_PRES TOKYO_R50_DIR TOKYO_R50_LONG TOKYO_R50_SHORT TOKYO_R30_DIR TOKYO_R30_LONG TOKYO_R30_SHORT TOKYO_LAND CMA_LAT CMA_LON CMA_CAT CMA_WIND CMA_PRES HKO_LAT HKO_LON HKO_CAT HKO_WIND HKO_PRES NEWDELHI_LAT NEWDELHI_LON NEWDELHI_GRADE NEWDELHI_WIND NEWDELHI_PRES NEWDELHI_CI NEWDELHI_DP NEWDELHI_POCI REUNION_LAT REUNION_LON REUNION_TYPE REUNION_WIND REUNION_PRES REUNION_TNUM REUNION_CI REUNION_RMW REUNION_R34_NE REUNION_R34_SE REUNION_R34_SW REUNION_R34_NW REUNION_R50_NE REUNION_R50_SE REUNION_R50_SW REUNION_R50_NW REUNION_R64_NE REUNION_R64_SE REUNION_R64_SW REUNION_R64_NW BOM_LAT BOM_LON BOM_TYPE BOM_WIND BOM_PRES BOM_TNUM BOM_CI BOM_RMW BOM_R34_NE BOM_R34_SE BOM_R34_SW BOM_R34_NW BOM_R50_NE BOM_R50_SE BOM_R50_SW BOM_R50_NW BOM_R64_NE BOM_R64_SE BOM_R64_SW BOM_R64_NW BOM_ROCI BOM_POCI BOM_EYE BOM_POS_METHOD BOM_PRES_METHOD NADI_LAT NADI_LON NADI_CAT NADI_WIND NADI_PRES WELLINGTON_LAT WELLINGTON_LON WELLINGTON_WIND WELLINGTON_PRES DS824_LAT DS824_LON DS824_STAGE DS824_WIND DS824_PRES TD9636_LAT TD9636_LON TD9636_STAGE TD9636_WIND TD9636_PRES TD9635_LAT TD9635_LON TD9635_WIND TD9635_PRES TD9635_ROCI NEUMANN_LAT NEUMANN_LON NEUMANN_CLASS NEUMANN_WIND NEUMANN_PRES MLC_LAT MLC_LON MLC_CLASS MLC_WIND MLC_PRES USA_GUST BOM_GUST BOM_GUST_PER REUNION_GUST REUNION_GUST_PER USA_SEAHGT USA_SEARAD_NE USA_SEARAD_SE USA_SEARAD_SW USA_SEARAD_NW STORM_SPEED STORM_DIR
1927276N13143 1927 55 WP MM NOT_NAMED 1927-10-02 22:00:00 NR 12.6000 142.800 main 1670 1654 __________O___ -1 12.6000 142.800 7 14 276
1927276N13143 1927 55 WP MM NOT_NAMED 1927-10-03 00:00:00 NR 12.6464 142.319 main 1654 1638 __________P___ -1 12.6464 142.319 7 14 275
1927276N13143 1927 55 WP MM NOT_NAMED 1927-10-03 03:00:00 NR 12.7103 141.597 main 1638 1617 __________P___ -1 12.7103 141.597 7 14 275
1927276N13143 1927 55 WP MM NOT_NAMED 1927-10-03 06:00:00 NR 12.7617 140.872 main 1620 1569 __________P___ -1 12.7617 140.872 7 14 273
1927276N13143 1927 55 WP MM NOT_NAMED 1927-10-03 09:00:00 NR 12.7944 140.144 main 1569 1548 __________P___ -1 12.7944 140.144 7 14 272
1927276N13143 1927 55 WP MM NOT_NAMED 1927-10-03 10:00:00 NR 12.8000 139.900 main 1548 1494 __________O___ -1 12.8000 139.900 7 14 271
1927276N13143 1927 55 WP MM NOT_NAMED 1927-10-03 12:00:00 NR 12.8026 139.411 main 1494 1418 __________P___ -1 12.8026 139.411 7 14 269
1927276N13143 1927 55 WP MM NOT_NAMED 1927-10-03 15:00:00 NR 12.7879 138.671 main 1418 1332 __________P___ -1 12.7879 138.671 7 15 268
1927276N13143 1927 55 WP MM NOT_NAMED 1927-10-03 18:00:00 NR 12.7566 137.921 main 1332 1255 __________P___ -1 12.7566 137.921 7 15 267
1927276N13143 1927 55 WP MM NOT_NAMED 1927-10-03 21:00:00 NR 12.7151 137.158 main 1255 1223 __________P___ -1 12.7151 137.158 7 15 267
1927276N13143 1927 55 WP MM NOT_NAMED 1927-10-03 22:00:00 NR 12.7000 136.900 main 1223 1169 __________O___ -1 12.7000 136.900 7 15 266
1927276N13143 1927 55 WP MM NOT_NAMED 1927-10-04 00:00:00 NR 12.6666 136.383 main 1169 1082 __________P___ -1 12.6666 136.383 7 15 266
1927276N13143 1927 55 WP MM NOT_NAMED 1927-10-04 03:00:00 NR 12.6105 135.595 main 1082 996 __________P___ -1 12.6105 135.595 7 16 266
1927276N13143 1927 55 WP MM NOT_NAMED 1927-10-04 06:00:00 NR 12.5554 134.793 main 996 908 __________P___ -1 12.5554 134.793 7 16 266
1927276N13143 1927 55 WP MM NOT_NAMED 1927-10-04 09:00:00 NR 12.5109 133.976 main 908 876 __________P___ -1 12.5109 133.976 7 16 267
1927276N13143 1927 55 WP MM NOT_NAMED 1927-10-04 10:00:00 NR 12.5000 133.700 main 876 812 __________O___ -1 12.5000 133.700 7 17 268
1927276N13143 1927 55 WP MM NOT_NAMED 1927-10-04 12:00:00 NR 12.4884 133.132 main 812 727 __________P___ -1 12.4884 133.132 7 17 269
1927276N13143 1927 55 WP MM NOT_NAMED 1927-10-04 15:00:00 NR 12.4839 132.267 main 727 632 __________P___ -1 12.4839 132.267 7 17 270
1927276N13143 1927 55 WP MM NOT_NAMED 1927-10-04 18:00:00 NR 12.4890 131.405 main 632 549 __________P___ -1 12.4890 131.405 7 17 270
1927276N13143 1927 55 WP MM NOT_NAMED 1927-10-04 21:00:00 NR 12.4975 130.569 main 549 518 __________P___ -1 12.4975 130.569 7 16 271
1927276N13143 1927 55 WP MM NOT_NAMED 1927-10-04 22:00:00 NR 12.5000 130.300 main 518 467 __________O___ -1 12.5000 130.300 3 15 270
1927276N13143 1927 55 WP MM NOT_NAMED 1927-10-05 00:00:00 NR 12.5019 129.786 main 467 381 __________P___ -1 12.5019 129.786 3 15 270
1927276N13143 1927 55 WP MM NOT_NAMED 1927-10-05 03:00:00 NR 12.5053 129.045 main 381 306 __________P___ -1 12.5053 129.045 3 14 270
1927276N13143 1927 55 WP MM NOT_NAMED 1927-10-05 06:00:00 NR 12.5068 128.332 main 306 230 __________P___ -1 12.5068 128.332 3 14 270
1927276N13143 1927 55 WP MM NOT_NAMED 1927-10-05 09:00:00 NR 12.5030 127.632 main 230 209 __________P___ -1 12.5030 127.632 3 14 270
1927276N13143 1927 55 WP MM NOT_NAMED 1927-10-05 10:00:00 NR 12.5000 127.400 main 209 166 __________O___ -1 12.5000 127.400 4 13 268
1927276N13143 1927 55 WP MM NOT_NAMED 1927-10-05 12:00:00 NR 12.4854 126.954 main 166 93 __________P___ -1 12.4854 126.954 4 13 268
1927276N13143 1927 55 WP MM NOT_NAMED 1927-10-05 15:00:00 NR 12.4577 126.291 main 93 24 __________P___ -1 12.4577 126.291 4 13 268
1927276N13143 1927 55 WP MM NOT_NAMED 1927-10-05 18:00:00 NR 12.4289 125.607 main 24 0 __________P___ -1 12.4289 125.607 4 14 268
1927276N13143 1927 55 WP MM NOT_NAMED 1927-10-05 21:00:00 NR 12.4055 124.866 main 0 0 __________P___ -1 12.4055 124.866 4 15 268
1927276N13143 1927 55 WP MM NOT_NAMED 1927-10-05 22:00:00 NR 12.4000 124.600 main 0 0 __________O___ -1 12.4000 124.600 4 17 266
1927276N13143 1927 55 WP MM NOT_NAMED 1927-10-06 00:00:00 NR 12.3527 124.012 main 15 0 __________P___ -1 12.3527 124.012 4 18 266
1927276N13143 1927 55 WP MM NOT_NAMED 1927-10-06 03:00:00 NR 12.2869 123.067 main 15 24 __________P___ -1 12.2869 123.067 4 19 267
1927276N13143 1927 55 WP MM NOT_NAMED 1927-10-06 06:00:00 NR 12.2687 122.087 main 55 0 __________P___ -1 12.2687 122.087 4 19 272
1927276N13143 1927 55 WP MM NOT_NAMED 1927-10-06 09:00:00 NR 12.3452 121.115 main 0 0 __________P___ -1 12.3452 121.115 4 19 276
1927276N13143 1927 55 WP MM NOT_NAMED 1927-10-06 10:00:00 NR 12.4000 120.800 main 21 21 __________O___ -1 12.4000 120.800 4 19 286
1927276N13143 1927 55 WP MM NOT_NAMED 1927-10-06 12:00:00 NR 12.5985 120.189 main 66 76 __________P___ -1 12.5985 120.189 4 19 292
1927276N13143 1927 55 WP MM NOT_NAMED 1927-10-06 15:00:00 NR 12.9982 119.295 main 117 127 __________P___ -1 12.9982 119.295 4 19 297
1927276N13143 1927 55 WP MM NOT_NAMED 1927-10-06 18:00:00 NR 13.4505 118.443 main 205 205 __________P___ -1 13.4505 118.443 4 18 299
1927276N13143 1927 55 WP MM NOT_NAMED 1927-10-06 21:00:00 NR 13.8771 117.649 main 287 287 __________P___ -1 13.8771 117.649 4 17 298
1927276N13143 1927 55 WP MM NOT_NAMED 1927-10-06 22:00:00 NR 14.0000 117.400 main 304 304 __________O___ -1 14.0000 117.400 4 15 295
1927276N13143 1927 55 WP MM NOT_NAMED 1927-10-07 00:00:00 NR 14.1929 116.947 main 349 349 __________P___ -1 14.1929 116.947 4 14 292
1927276N13143 1927 55 WP MM NOT_NAMED 1927-10-07 03:00:00 NR 14.4269 116.326 main 402 402 __________P___ -1 14.4269 116.326 4 12 289
1927276N13143 1927 55 WP MM NOT_NAMED 1927-10-07 06:00:00 NR 14.5922 115.732 main 456 456 __________P___ -1 14.5922 115.732 4 12 282
1927276N13143 1927 55 WP MM NOT_NAMED 1927-10-07 09:00:00 NR 14.6855 115.117 main 514 514 __________P___ -1 14.6855 115.117 4 12 278
1927276N13143 1927 55 WP MM NOT_NAMED 1927-10-07 10:00:00 NR 14.7000 114.900 main 535 535 __________O___ -1 14.7000 114.900 4 13 272
1927276N13143 1927 55 WP MM NOT_NAMED 1927-10-07 12:00:00 NR 14.7041 114.439 main 557 482 __________P___ -1 14.7041 114.439 4 14 268
1927276N13143 1927 55 WP MM NOT_NAMED 1927-10-07 15:00:00 NR 14.6577 113.692 main 482 396 __________P___ -1 14.6577 113.692 4 15 265
1927276N13143 1927 55 WP MM NOT_NAMED 1927-10-07 18:00:00 NR 14.5646 112.897 main 396 307 __________P___ -1 14.5646 112.897 4 16 262
1927276N13143 1927 55 WP MM NOT_NAMED 1927-10-07 21:00:00 NR 14.4434 112.076 main 307 275 __________P___ -1 14.4434 112.076 4 16 261
1927276N13143 1927 55 WP MM NOT_NAMED 1927-10-07 22:00:00 NR 14.4000 111.800 main 275 __________O___ -1 14.4000 111.800 4 16 261

デジタル台風データ・検索

IBTrACS Databaseについて

本データベースは、米国NOAAが公開する1842年以降の世界の熱帯低気圧のベストトラックデータアーカイブInternational Best Track Archive for Climate Stewardship (IBTrACS)を、ウェブで閲覧しやすい形式に変換したものです。

最終更新日:2021-10-19